Nearby METAR Reports

 

KCLM - Port Angeles, Washington, USA
Distance from station: W 17mi, 27km
Updated: Mon, 11-Dec-2017 9:53pm PST
Clear
Clear
 Wind from SW
Wind: SW 3 mph , 6 km/h
Temperature: 32°F , 0°C
Dew Point: 30°F , -1°C
Humidity: 93%
Barometer: 30.38 inHg , 1028.8 hPa
Clouds: Clear
Visibility: 7 miles , 11 km
2017/12/12 05:53 KCLM 120553Z AUTO 23003KT 7SM CLR 00/M01 A3038 RMK AO2 SLP292 I1000 I6000 T00001006 10050 21017 51006
CWQK - Race Rocks Autob, British Columbia, Canada
Distance from station: NW 23mi, 36km
Updated: Mon, 11-Dec-2017 10:00pm PST

 Wind from N
Wind: N 5 mph , 7 km/h
Temperature: 43°F , 6°C
Wind Chill: 40°F , 4°C
Dew Point: 37°F , 3°C
Humidity: 81%
2017/12/12 06:00 CWQK 120600Z AUTO 01004KT 06/03 RMK AO1 SLP292 T00600031 53005
 
KNUW - Whidbey Is. Nas, Washington, USA
Distance from station: NE 28mi, 45km
Updated: Mon, 11-Dec-2017 9:56pm PST
Few Clouds
Few Clouds
 Wind from ESE
Wind: ESE 6 mph , 9 km/h
Temperature: 39°F , 4°C
Wind Chill: 35°F , 2°C
Dew Point: 32°F , 0°C
Humidity: 75%
Barometer: 30.44 inHg , 1030.8 hPa
Clouds: Few Clouds
Visibility: 10 miles , 16 km
Cloud details: Few Clouds 3000 ft
Few Clouds 20000 ft
2017/12/12 05:56 KNUW 120556Z 11005KT 10SM FEW030 FEW200 04/00 A3044 RMK AO2 SLP306 T00390000 10067 20017 51015 $
KFHR - Friday Harbor, Washington, USA
Distance from station: N 29mi, 46km
Updated: Mon, 11-Dec-2017 9:53pm PST
Clear
Clear
 Wind from calm
Wind: Calm
Temperature: 36°F , 2°C
Dew Point: 32°F , 0°C
Humidity: 87%
Barometer: 30.39 inHg , 1029.1 hPa
Clouds: Clear
Visibility: 10 miles , 16 km
2017/12/12 05:53 KFHR 120553Z AUTO 00000KT 10SM CLR 02/00 A3039 RMK AO2 SLP294 T00170000 10061 21006 51009 $
 
KBVS - Burlington/Mt V, Washington, USA
Distance from station: NE 41mi, 66km
Updated: Mon, 11-Dec-2017 9:55pm PST
Overcast
Overcast
 Wind from calm
Wind: Calm
Temperature: 34°F , 1°C
Dew Point: 32°F , 0°C
Humidity: 93%
Barometer: 30.39 inHg , 1029.1 hPa
Clouds: Overcast
Visibility: 10 miles , 16 km
Cloud details: Mostly cloudy 5000 ft
Overcast 12000 ft
2017/12/12 05:55 KBVS 120555Z AUTO 00000KT 10SM BKN050 OVC120 01/M00 A3039 RMK A01
KPAE - Everett, Washington, USA
Distance from station: ESE 42mi, 67km
Updated: Mon, 11-Dec-2017 9:53pm PST
Clear
Clear
 Wind from ESE
Wind: ESE 8 mph , 13 km/h
Temperature: 43°F , 6°C
Wind Chill: 38°F , 3°C
Dew Point: 23°F , -5°C
Humidity: 46%
Barometer: 30.41 inHg , 1029.8 hPa
Clouds: Clear
Visibility: 10 miles , 16 km
2017/12/12 05:53 KPAE 120553Z AUTO 11007KT 10SM CLR 06/M05 A3041 RMK AO2 SLP300 T00611050 10072 20028 51012
 
KORS - Eastsound/Orcas, Washington, USA
Distance from station: NNE 42mi, 68km
Updated: Mon, 11-Dec-2017 9:55pm PST
Overcast
Overcast
 Wind from calm
Wind: Calm
Temperature: 36°F , 2°C
Dew Point: 36°F , 2°C
Humidity: 100%
Barometer: 30.39 inHg , 1029.1 hPa
Clouds: Overcast
Visibility: 10 miles , 16 km
Cloud details: Overcast 5500 ft
2017/12/12 05:55 KORS 120555Z AUTO 00000KT 10SM OVC055 02/02 A3039 RMK AO2
KAWO - Arlington Muni, Washington, USA
Distance from station: E 45mi, 72km
Updated: Mon, 11-Dec-2017 9:56pm PST
Clear
Clear
 Wind from E
Wind: E 5 mph , 7 km/h
Temperature: 28°F , -2°C
Wind Chill: 22°F , -6°C
Dew Point: 27°F , -3°C
Humidity: 93%
Barometer: 30.41 inHg , 1029.8 hPa
Clouds: Clear
Visibility: 10 miles , 16 km
2017/12/12 05:56 KAWO 120556Z AUTO 08004KT 10SM CLR M02/M03 A3041 RMK AO2 SLP305 T10221033 10056 21028 51009 FZRANO
 
KPWT - Bremerton Ntnl, Washington, USA
Distance from station: SSE 46mi, 73km
Updated: Mon, 11-Dec-2017 9:56pm PST
Clear
Clear
 Wind from calm
Wind: Calm
Temperature: 28°F , -2°C
Dew Point: 27°F , -3°C
Humidity: 93%
Barometer: 30.41 inHg , 1029.8 hPa
Clouds: Clear
Visibility: 10 miles , 16 km
2017/12/12 05:56 KPWT 120556Z AUTO 00000KT 10SM CLR M02/M03 A3041 RMK AO2 SLP316 6//// T10221028 10061 21022 51015 FZRANO